createdAt,value
2023-01-25T00:00:41.178Z,71.85
2023-01-25T00:01:55.293Z,63.80
2023-01-25T00:03:00.404Z,63.45
2023-01-25T00:04:02.378Z,65.35
2023-01-25T00:05:07.857Z,61.13
2023-01-25T00:06:10.098Z,67.70
2023-01-25T00:07:17.337Z,62.40
2023-01-25T00:08:21.276Z,72.75
2023-01-25T00:09:27.034Z,69.30
2023-01-25T00:10:29.083Z,66.78
2023-01-25T00:11:34.097Z,62.03
2023-01-25T00:12:36.098Z,62.47
2023-01-25T00:13:40.655Z,61.15
2023-01-25T00:14:42.590Z,69.60
2023-01-25T00:15:47.126Z,74.22
2023-01-25T00:16:49.208Z,66.75
2023-01-25T00:17:53.983Z,63.75
2023-01-25T00:18:55.973Z,64.75
2023-01-25T00:20:00.550Z,66.28
2023-01-25T00:21:12.166Z,61.65
2023-01-25T00:23:21.233Z,66.43
2023-01-25T00:24:26.316Z,71.72
2023-01-25T00:25:28.373Z,60.13
2023-01-25T00:26:33.603Z,64.35
2023-01-25T00:27:35.666Z,68.60
2023-01-25T00:28:40.629Z,58.03
2023-01-25T00:29:42.820Z,60.97
2023-01-25T00:30:47.402Z,66.13
2023-01-25T00:32:02.461Z,69.95
2023-01-25T00:33:30.028Z,65.45
2023-01-25T00:34:51.672Z,71.30
2023-01-25T00:35:57.018Z,66.68
2023-01-25T00:37:05.657Z,62.50
2023-01-25T00:38:33.237Z,60.72
2023-01-25T00:39:35.270Z,59.80
2023-01-25T00:40:39.809Z,61.22
2023-01-25T00:41:42.867Z,61.30
2023-01-25T00:42:47.478Z,60.55
2023-01-25T00:43:49.455Z,61.05
2023-01-25T00:44:54.076Z,59.72
2023-01-25T00:46:00.850Z,55.28
2023-01-25T00:47:05.510Z,65.05
2023-01-25T00:48:10.143Z,56.72
2023-01-25T00:49:19.949Z,56.33
2023-01-25T00:50:24.550Z,58.08
2023-01-25T00:51:26.652Z,54.45
2023-01-25T00:52:31.392Z,57.97
2023-01-25T00:53:36.110Z,73.47
2023-01-25T00:54:40.699Z,73.03
2023-01-25T00:55:51.201Z,59.72
2023-01-25T00:56:56.652Z,58.33
2023-01-25T00:58:01.308Z,47.75
2023-01-25T00:59:03.306Z,53.58
2023-01-25T01:00:09.536Z,57.60
2023-01-25T01:01:12.523Z,56.00
2023-01-25T01:02:17.309Z,56.30
2023-01-25T01:03:19.453Z,54.63
2023-01-25T01:04:25.706Z,58.25
2023-01-25T01:05:30.509Z,62.40
2023-01-25T01:06:32.660Z,62.45
2023-01-25T01:07:37.490Z,57.58
2023-01-25T01:08:43.079Z,60.92
2023-01-25T01:09:47.778Z,61.40
2023-01-25T01:10:49.863Z,58.45
2023-01-25T01:11:54.717Z,59.20
2023-01-25T01:12:56.884Z,52.35
2023-01-25T01:14:02.191Z,53.60
2023-01-25T01:15:08.402Z,58.80
2023-01-25T01:16:12.284Z,60.20
2023-01-25T01:17:17.077Z,64.15
2023-01-25T01:18:19.203Z,58.60
2023-01-25T01:19:24.230Z,60.42
2023-01-25T01:20:26.320Z,52.75
2023-01-25T01:21:31.422Z,55.33
2023-01-25T01:22:33.426Z,56.95
2023-01-25T01:23:39.502Z,57.53
2023-01-25T01:24:46.860Z,55.45
2023-01-25T01:25:48.997Z,56.13
2023-01-25T01:26:53.674Z,67.80
2023-01-25T01:27:55.755Z,61.35
2023-01-25T01:29:01.675Z,53.67
2023-01-25T01:30:04.588Z,57.55
2023-01-25T01:31:11.393Z,51.13
2023-01-25T01:32:16.198Z,52.28
2023-01-25T01:33:18.315Z,58.03
2023-01-25T01:34:23.012Z,54.33
2023-01-25T01:35:24.999Z,54.70
2023-01-25T01:36:32.420Z,50.70
2023-01-25T01:37:34.422Z,56.95
2023-01-25T01:38:39.350Z,57.15
2023-01-25T01:39:43.963Z,54.67
2023-01-25T01:40:49.311Z,57.47
2023-01-25T01:41:53.954Z,52.50
2023-01-25T01:43:01.252Z,61.15
2023-01-25T01:44:06.692Z,58.70
2023-01-25T01:45:38.551Z,54.83
2023-01-25T01:46:43.614Z,58.55
2023-01-25T01:47:48.874Z,66.22
2023-01-25T01:48:57.739Z,55.28
2023-01-25T01:50:03.778Z,61.47
2023-01-25T01:51:19.470Z,59.03
2023-01-25T01:52:30.351Z,60.55
2023-01-25T01:53:33.866Z,63.97
2023-01-25T01:54:46.003Z,57.92
2023-01-25T01:55:51.877Z,55.83
2023-01-25T01:57:01.489Z,59.22
2023-01-25T01:58:04.662Z,57.40
2023-01-25T01:59:10.907Z,85.90
2023-01-25T02:00:16.835Z,81.90
2023-01-25T02:01:21.975Z,62.88
2023-01-25T02:02:25.126Z,61.72
2023-01-25T02:03:31.500Z,58.95
2023-01-25T02:04:35.467Z,52.92
2023-01-25T02:05:46.947Z,59.92
2023-01-25T02:06:53.676Z,56.53
2023-01-25T02:07:59.137Z,59.33
2023-01-25T02:09:02.019Z,61.85
2023-01-25T02:10:08.964Z,58.33
2023-01-25T02:11:13.909Z,54.88
2023-01-25T02:12:19.231Z,58.55
2023-01-25T02:13:21.961Z,59.08
2023-01-25T02:14:27.387Z,57.97
2023-01-25T02:15:37.666Z,53.47
2023-01-25T02:16:42.548Z,72.65
2023-01-25T02:17:44.542Z,96.00
2023-01-25T02:18:49.793Z,72.15
2023-01-25T02:19:56.920Z,60.03
2023-01-25T02:21:03.971Z,58.53
2023-01-25T02:22:13.528Z,58.42
2023-01-25T02:23:27.880Z,55.25
2023-01-25T02:24:33.379Z,51.47
2023-01-25T02:25:41.572Z,74.70
2023-01-25T02:26:43.836Z,77.97
2023-01-25T02:27:54.617Z,66.53
2023-01-25T02:29:01.158Z,58.95
2023-01-25T02:30:06.686Z,54.50
2023-01-25T02:31:08.747Z,62.92
2023-01-25T02:32:13.655Z,53.67
2023-01-25T02:33:16.204Z,59.55
2023-01-25T02:34:20.810Z,53.05
2023-01-25T02:35:36.103Z,48.03
2023-01-25T02:36:40.875Z,51.90
2023-01-25T02:37:42.864Z,47.22
2023-01-25T02:38:54.007Z,50.97
2023-01-25T02:39:56.010Z,50.75
2023-01-25T02:41:09.444Z,60.17
2023-01-25T02:42:11.424Z,56.58
2023-01-25T02:43:16.137Z,54.58
2023-01-25T02:44:21.527Z,56.65
2023-01-25T02:45:32.506Z,52.90
2023-01-25T02:46:36.967Z,58.22
2023-01-25T02:47:41.805Z,57.20
2023-01-25T02:48:43.810Z,54.00
2023-01-25T02:49:48.556Z,68.45
2023-01-25T02:50:50.639Z,69.18
2023-01-25T02:51:57.857Z,55.45
2023-01-25T02:52:59.968Z,57.33
2023-01-25T02:54:06.152Z,51.58
2023-01-25T02:55:09.816Z,58.30
2023-01-25T02:56:17.592Z,45.80
2023-01-25T02:57:21.672Z,47.20
2023-01-25T02:58:27.749Z,53.42
2023-01-25T02:59:29.833Z,62.58
2023-01-25T03:00:34.458Z,56.63
2023-01-25T03:01:38.473Z,51.10
2023-01-25T03:02:43.418Z,53.92
2023-01-25T03:03:45.597Z,56.72
2023-01-25T03:04:51.283Z,52.38
2023-01-25T03:05:53.471Z,48.30
2023-01-25T03:06:58.842Z,56.95
2023-01-25T03:08:01.057Z,58.83
2023-01-25T03:09:07.040Z,55.85
2023-01-25T03:10:10.843Z,54.63
2023-01-25T03:11:18.105Z,56.00
2023-01-25T03:12:20.233Z,42.33
2023-01-25T03:13:24.890Z,43.28
2023-01-25T03:14:26.941Z,48.42
2023-01-25T03:15:31.635Z,40.90
2023-01-25T03:16:33.982Z,49.83
2023-01-25T03:17:39.018Z,46.05
2023-01-25T03:18:41.415Z,49.15
2023-01-25T03:19:46.135Z,49.22
2023-01-25T03:20:48.106Z,52.63
2023-01-25T03:21:52.769Z,40.72
2023-01-25T03:22:55.372Z,46.63
2023-01-25T03:24:03.282Z,47.80
2023-01-25T03:25:07.351Z,55.30
2023-01-25T03:26:13.687Z,50.80
2023-01-25T03:27:18.709Z,48.92
2023-01-25T03:28:23.344Z,48.08
2023-01-25T03:29:25.319Z,51.25
2023-01-25T03:30:29.951Z,49.15
2023-01-25T03:31:32.119Z,52.35
2023-01-25T03:32:38.118Z,48.30
2023-01-25T03:33:40.797Z,53.67
2023-01-25T03:34:45.508Z,48.63
2023-01-25T03:35:52.347Z,53.13
2023-01-25T03:36:56.981Z,47.42
2023-01-25T03:37:58.965Z,48.80
2023-01-25T03:39:03.621Z,64.30
2023-01-25T03:40:07.176Z,56.90
2023-01-25T03:41:13.111Z,56.08
2023-01-25T03:42:20.304Z,54.42
2023-01-25T03:43:24.983Z,50.10
2023-01-25T03:44:27.204Z,85.03
2023-01-25T03:45:32.008Z,59.67
2023-01-25T03:46:34.017Z,52.22
2023-01-25T03:47:38.702Z,51.30
2023-01-25T03:48:40.733Z,54.17
2023-01-25T03:49:45.623Z,51.65
2023-01-25T03:50:52.069Z,60.17
2023-01-25T03:51:58.093Z,48.15
2023-01-25T03:53:03.789Z,57.47
2023-01-25T03:54:10.397Z,58.42
2023-01-25T03:55:12.517Z,54.65
2023-01-25T03:56:20.682Z,74.57
2023-01-25T03:57:25.919Z,77.18
2023-01-25T03:58:31.376Z,52.90
2023-01-25T03:59:33.696Z,59.25
2023-01-25T04:00:38.442Z,51.70
2023-01-25T04:01:40.742Z,49.15
2023-01-25T04:02:45.331Z,54.80
2023-01-25T04:03:47.337Z,60.05
2023-01-25T04:04:52.333Z,51.80
2023-01-25T04:05:55.139Z,54.35
2023-01-25T04:06:59.844Z,51.15
2023-01-25T04:08:01.908Z,46.53
2023-01-25T04:09:06.783Z,47.10
2023-01-25T04:10:10.680Z,55.05
2023-01-25T04:11:15.502Z,62.05
2023-01-25T04:12:17.622Z,57.85
2023-01-25T04:13:27.065Z,55.58
2023-01-25T04:14:43.627Z,54.42
2023-01-25T04:15:49.241Z,51.50
2023-01-25T04:16:51.325Z,49.95
2023-01-25T04:17:56.372Z,53.50
2023-01-25T04:18:58.628Z,52.05
2023-01-25T04:20:03.445Z,46.33
2023-01-25T04:21:06.402Z,46.03
2023-01-25T04:22:11.465Z,39.20
2023-01-25T04:23:16.089Z,41.33
2023-01-25T04:24:18.172Z,43.22
2023-01-25T04:25:22.935Z,43.63
2023-01-25T04:26:25.187Z,43.72
2023-01-25T04:27:29.775Z,37.38
2023-01-25T04:28:35.589Z,44.13
2023-01-25T04:29:41.889Z,44.22
2023-01-25T04:30:44.275Z,43.33
2023-01-25T04:31:49.167Z,44.00
2023-01-25T04:32:51.573Z,42.30
2023-01-25T04:33:56.548Z,42.03
2023-01-25T04:34:58.638Z,48.13
2023-01-25T04:36:03.587Z,42.78
2023-01-25T04:37:05.546Z,44.13
2023-01-25T04:38:10.370Z,48.60
2023-01-25T04:39:12.300Z,46.65
2023-01-25T04:40:16.878Z,48.30
2023-01-25T04:41:18.816Z,47.90
2023-01-25T04:42:23.428Z,45.05
2023-01-25T04:43:26.341Z,43.90
2023-01-25T04:44:33.616Z,45.20
2023-01-25T04:45:36.482Z,42.15
2023-01-25T04:46:41.234Z,43.35
2023-01-25T04:47:43.232Z,47.03
2023-01-25T04:48:48.074Z,40.10
2023-01-25T04:49:50.143Z,41.85
2023-01-25T04:50:54.716Z,39.95
2023-01-25T04:51:56.843Z,50.72
2023-01-25T04:53:01.429Z,39.72
2023-01-25T04:54:04.817Z,47.22
2023-01-25T04:55:10.418Z,46.53
2023-01-25T04:56:12.627Z,39.00
2023-01-25T04:57:17.139Z,39.88
2023-01-25T04:58:19.756Z,37.50
2023-01-25T04:59:24.250Z,36.45
2023-01-25T05:00:29.408Z,33.45
2023-01-25T05:01:34.686Z,36.10
2023-01-25T05:02:36.790Z,35.47
2023-01-25T05:03:41.388Z,38.25
2023-01-25T05:04:43.372Z,42.60
2023-01-25T05:05:49.835Z,40.25
2023-01-25T05:06:51.777Z,39.03
2023-01-25T05:07:56.279Z,39.78
2023-01-25T05:08:58.227Z,44.58
2023-01-25T05:10:02.798Z,37.53
2023-01-25T05:11:05.020Z,37.70
2023-01-25T05:12:13.646Z,37.28
2023-01-25T05:13:15.572Z,39.00
2023-01-25T05:14:20.127Z,37.67
2023-01-25T05:15:22.127Z,41.17
2023-01-25T05:16:29.296Z,36.00
2023-01-25T05:17:31.324Z,38.00
2023-01-25T05:18:47.421Z,41.22
2023-01-25T05:19:49.735Z,58.67
2023-01-25T05:20:57.829Z,41.30
2023-01-25T05:22:00.170Z,40.17
2023-01-25T05:23:04.806Z,31.58
2023-01-25T05:24:07.476Z,32.97
2023-01-25T05:25:32.648Z,32.50
2023-01-25T05:26:49.747Z,33.95
2023-01-25T05:27:51.726Z,33.28
2023-01-25T05:28:53.773Z,30.90
2023-01-25T05:30:00.015Z,31.95
2023-01-25T05:31:04.825Z,37.42
2023-01-25T05:32:14.600Z,30.25
2023-01-25T05:33:16.633Z,33.03
2023-01-25T05:34:21.335Z,32.42
2023-01-25T05:35:26.135Z,40.95
2023-01-25T05:36:28.105Z,49.42
2023-01-25T05:37:32.823Z,36.28
2023-01-25T05:38:34.915Z,34.65
2023-01-25T05:39:39.733Z,36.15
2023-01-25T05:40:42.090Z,48.50
2023-01-25T05:41:46.801Z,47.17
2023-01-25T05:42:53.950Z,58.55
2023-01-25T05:43:58.587Z,54.42
2023-01-25T05:45:00.604Z,49.17
2023-01-25T05:46:06.010Z,40.83
2023-01-25T05:47:16.420Z,38.47
2023-01-25T05:48:18.448Z,37.53
2023-01-25T05:49:23.638Z,39.75
2023-01-25T05:50:26.573Z,35.20
2023-01-25T05:51:31.212Z,43.75
2023-01-25T05:52:33.289Z,34.88
2023-01-25T05:53:37.919Z,40.60
2023-01-25T05:54:40.212Z,37.88
2023-01-25T05:55:44.824Z,37.40
2023-01-25T05:56:50.085Z,43.35
2023-01-25T05:57:58.030Z,30.52
2023-01-25T05:59:01.708Z,32.97
2023-01-25T06:00:07.991Z,30.92
2023-01-25T06:01:10.233Z,32.30
2023-01-25T06:02:17.659Z,36.50
2023-01-25T06:03:19.862Z,30.88
2023-01-25T06:04:24.687Z,34.13
2023-01-25T06:05:26.765Z,35.55
2023-01-25T06:06:31.708Z,34.25
2023-01-25T06:07:36.367Z,32.85
2023-01-25T06:08:41.436Z,39.28
2023-01-25T06:09:43.539Z,33.08
2023-01-25T06:10:48.147Z,30.75
2023-01-25T06:11:50.310Z,34.33
2023-01-25T06:13:00.762Z,33.03
2023-01-25T06:14:02.759Z,31.55
2023-01-25T06:15:08.757Z,35.00
2023-01-25T06:16:11.258Z,30.05
2023-01-25T06:17:18.779Z,31.73
2023-01-25T06:18:21.544Z,34.90
2023-01-25T06:19:26.124Z,34.40
2023-01-25T06:20:28.295Z,43.75
2023-01-25T06:21:33.056Z,36.25
2023-01-25T06:22:35.144Z,38.55
2023-01-25T06:23:39.956Z,34.95
2023-01-25T06:24:42.024Z,40.75
2023-01-25T06:25:46.661Z,36.55
2023-01-25T06:26:48.681Z,39.08
2023-01-25T06:27:53.322Z,38.40
2023-01-25T06:28:55.478Z,40.53
2023-01-25T06:30:00.752Z,43.67
2023-01-25T06:31:07.788Z,44.03
2023-01-25T06:32:12.633Z,44.83
2023-01-25T06:33:17.578Z,44.65
2023-01-25T06:34:22.837Z,49.70
2023-01-25T06:35:25.087Z,57.33
2023-01-25T06:36:29.967Z,57.38
2023-01-25T06:37:31.993Z,61.70
2023-01-25T06:38:37.005Z,51.08
2023-01-25T06:39:38.974Z,44.42
2023-01-25T06:40:43.650Z,39.63
2023-01-25T06:41:48.362Z,45.35
2023-01-25T06:42:50.486Z,45.38
2023-01-25T06:43:55.988Z,44.60
2023-01-25T06:44:57.953Z,49.83
2023-01-25T06:46:03.497Z,52.95
2023-01-25T06:47:05.679Z,48.78
2023-01-25T06:48:12.756Z,40.38
2023-01-25T06:49:20.568Z,47.28
2023-01-25T06:50:22.655Z,51.13
2023-01-25T06:51:27.365Z,44.78
2023-01-25T06:52:30.929Z,45.63
2023-01-25T06:53:38.466Z,41.13
2023-01-25T06:54:43.230Z,42.53
2023-01-25T06:55:45.169Z,40.97
2023-01-25T06:56:49.749Z,47.65
2023-01-25T06:57:51.862Z,50.05
2023-01-25T06:58:56.499Z,50.25
2023-01-25T06:59:58.485Z,48.72
2023-01-25T07:01:04.649Z,45.58
2023-01-25T07:02:06.822Z,41.05
2023-01-25T07:03:11.783Z,49.13
2023-01-25T07:04:16.399Z,73.18
2023-01-25T07:05:21.357Z,59.58
2023-01-25T07:06:27.507Z,52.65
2023-01-25T07:07:29.725Z,55.88
2023-01-25T07:08:35.453Z,52.88
2023-01-25T07:09:40.347Z,45.05
2023-01-25T07:10:42.330Z,37.85
2023-01-25T07:11:47.520Z,40.70
2023-01-25T07:12:49.476Z,40.83
2023-01-25T07:13:54.164Z,47.70
2023-01-25T07:14:56.503Z,47.08
2023-01-25T07:16:02.937Z,41.30
2023-01-25T07:17:07.971Z,43.55
2023-01-25T07:18:16.267Z,48.33
2023-01-25T07:19:21.609Z,43.85
2023-01-25T07:20:26.460Z,43.42
2023-01-25T07:21:31.081Z,39.80
2023-01-25T07:22:37.752Z,43.88
2023-01-25T07:23:40.497Z,39.50
2023-01-25T07:24:50.007Z,41.70
2023-01-25T07:25:52.003Z,46.83
2023-01-25T07:26:56.760Z,39.03
2023-01-25T07:27:58.848Z,43.45
2023-01-25T07:29:03.536Z,42.28
2023-01-25T07:30:09.620Z,42.65
2023-01-25T07:31:12.021Z,43.53
2023-01-25T07:32:17.033Z,42.65
2023-01-25T07:33:19.011Z,41.00
2023-01-25T07:34:23.717Z,42.60
2023-01-25T07:35:28.231Z,47.35
2023-01-25T07:36:33.178Z,46.50
2023-01-25T07:37:35.297Z,48.10
2023-01-25T07:38:40.057Z,44.17
2023-01-25T07:39:48.602Z,45.85
2023-01-25T07:40:52.268Z,48.90
2023-01-25T07:41:56.749Z,48.03
2023-01-25T07:42:58.907Z,46.38
2023-01-25T07:44:03.482Z,46.20
2023-01-25T07:45:06.588Z,41.83
2023-01-25T07:46:14.064Z,33.83
2023-01-25T07:47:16.358Z,39.25
2023-01-25T07:48:22.522Z,47.17
2023-01-25T07:49:27.058Z,43.83
2023-01-25T07:50:31.580Z,41.95
2023-01-25T07:51:36.130Z,44.40
2023-01-25T07:52:38.162Z,45.08
2023-01-25T07:53:43.436Z,45.85
2023-01-25T07:54:50.003Z,47.33
2023-01-25T07:55:52.006Z,42.33
2023-01-25T07:56:57.904Z,41.50
2023-01-25T07:58:00.673Z,44.08
2023-01-25T07:59:08.325Z,45.25
2023-01-25T08:00:13.160Z,46.35
2023-01-25T08:01:19.829Z,42.10
2023-01-25T08:02:24.742Z,40.80
2023-01-25T08:03:26.774Z,43.10
2023-01-25T08:04:31.385Z,39.35
2023-01-25T08:05:35.873Z,37.78
2023-01-25T08:06:41.654Z,42.00
2023-01-25T08:07:46.176Z,37.08
2023-01-25T08:08:52.300Z,41.53
2023-01-25T08:09:56.822Z,37.15
2023-01-25T08:10:58.769Z,35.15
2023-01-25T08:12:03.524Z,34.33
2023-01-25T08:13:06.919Z,42.55
2023-01-25T08:14:11.585Z,34.60
2023-01-25T08:15:16.367Z,38.33
2023-01-25T08:16:20.253Z,46.53
2023-01-25T08:17:24.907Z,35.47
2023-01-25T08:18:29.410Z,42.95
2023-01-25T08:19:33.892Z,48.50
2023-01-25T08:20:38.408Z,57.40
2023-01-25T08:21:42.958Z,52.40
2023-01-25T08:22:47.569Z,53.28
2023-01-25T08:23:52.139Z,48.47
2023-01-25T08:24:57.254Z,41.03
2023-01-25T08:26:02.340Z,43.33
2023-01-25T08:27:06.970Z,46.38
2023-01-25T08:28:08.895Z,48.58
2023-01-25T08:29:14.150Z,45.97
2023-01-25T08:30:19.593Z,41.00
2023-01-25T08:31:23.052Z,34.15
2023-01-25T08:32:27.887Z,32.17
2023-01-25T08:33:29.857Z,38.00
2023-01-25T08:34:34.599Z,33.03
2023-01-25T08:35:39.221Z,39.13
2023-01-25T08:36:43.753Z,36.22
2023-01-25T08:37:48.248Z,35.97
2023-01-25T08:38:57.540Z,39.85
2023-01-25T08:40:02.081Z,36.97
2023-01-25T08:41:07.318Z,62.63
2023-01-25T08:42:11.855Z,60.65
2023-01-25T08:43:14.305Z,56.88
2023-01-25T08:44:22.429Z,49.63
2023-01-25T08:45:26.928Z,41.45
2023-01-25T08:46:33.576Z,42.22
2023-01-25T08:47:35.734Z,55.35
2023-01-25T08:48:40.593Z,31.92
2023-01-25T08:49:45.187Z,31.65
2023-01-25T08:50:49.756Z,39.10
2023-01-25T08:51:54.419Z,33.00
2023-01-25T08:52:56.505Z,32.80
2023-01-25T08:54:05.002Z,31.95
2023-01-25T08:55:10.206Z,34.67
2023-01-25T08:56:17.040Z,37.90
2023-01-25T08:57:21.584Z,32.80
2023-01-25T08:58:23.549Z,35.20
2023-01-25T08:59:28.074Z,33.90
2023-01-25T09:00:30.152Z,38.53
2023-01-25T09:01:34.852Z,35.28
2023-01-25T09:02:38.110Z,38.13
2023-01-25T09:03:44.494Z,36.60
2023-01-25T09:04:50.007Z,36.05
2023-01-25T09:05:54.962Z,36.80
2023-01-25T09:06:59.702Z,31.85
2023-01-25T09:08:05.871Z,33.50
2023-01-25T09:09:11.467Z,37.45
2023-01-25T09:10:16.322Z,39.85
2023-01-25T09:11:23.644Z,35.55
2023-01-25T09:12:28.344Z,37.25
2023-01-25T09:13:30.485Z,34.75
2023-01-25T09:14:35.203Z,35.45
2023-01-25T09:15:37.203Z,35.22
2023-01-25T09:16:42.184Z,36.40
2023-01-25T09:17:47.020Z,39.03
2023-01-25T09:18:50.731Z,46.72
2023-01-25T09:19:55.752Z,43.47
2023-01-25T09:21:03.501Z,42.95
2023-01-25T09:22:08.464Z,51.63
2023-01-25T09:23:13.270Z,55.35
2023-01-25T09:24:18.128Z,61.13
2023-01-25T09:25:20.191Z,43.60
2023-01-25T09:26:24.917Z,52.60
2023-01-25T09:27:29.677Z,68.07
2023-01-25T09:28:33.401Z,61.10
2023-01-25T09:29:39.574Z,54.10
2023-01-25T09:30:53.592Z,46.80
2023-01-25T09:32:04.453Z,47.88
2023-01-25T09:33:06.783Z,45.35
2023-01-25T09:34:12.369Z,43.05
2023-01-25T09:35:17.735Z,47.97
2023-01-25T09:36:22.476Z,58.63
2023-01-25T09:37:27.222Z,46.13
2023-01-25T09:38:29.445Z,49.35
2023-01-25T09:39:34.038Z,42.30
2023-01-25T09:40:44.414Z,78.55
2023-01-25T09:42:23.572Z,40.53
2023-01-25T09:43:41.188Z,42.70
2023-01-25T09:45:12.404Z,44.90
2023-01-25T09:46:29.096Z,36.08
2023-01-25T09:47:42.808Z,42.67
2023-01-25T09:49:07.393Z,47.40
2023-01-25T09:50:35.470Z,38.55
2023-01-25T09:51:59.879Z,44.20
2023-01-25T09:53:24.401Z,61.92
2023-01-25T09:54:33.756Z,70.50
2023-01-25T09:56:46.673Z,60.53
2023-01-25T09:57:51.107Z,59.42
2023-01-25T09:59:00.405Z,60.88
2023-01-25T10:00:12.266Z,48.47
2023-01-25T10:01:38.050Z,42.83
2023-01-25T10:02:52.058Z,45.38
2023-01-25T10:04:00.858Z,43.55
2023-01-25T10:05:11.200Z,50.22
2023-01-25T10:06:16.903Z,60.72
2023-01-25T10:07:31.019Z,59.40
2023-01-25T10:08:42.243Z,50.58
2023-01-25T10:09:54.667Z,44.45
2023-01-25T10:11:02.450Z,44.70
2023-01-25T10:12:15.627Z,61.90
2023-01-25T10:13:21.941Z,58.88
2023-01-25T10:14:28.081Z,48.40
2023-01-25T10:15:38.299Z,48.42
2023-01-25T10:16:53.366Z,46.30
2023-01-25T10:18:06.881Z,53.28
2023-01-25T10:19:22.748Z,65.57
2023-01-25T10:20:35.027Z,58.78
2023-01-25T10:21:43.977Z,53.40
2023-01-25T10:22:56.010Z,47.25
2023-01-25T10:24:13.380Z,46.00
2023-01-25T10:25:39.251Z,43.08
2023-01-25T10:26:45.369Z,46.25
2023-01-25T10:28:04.472Z,42.40
2023-01-25T10:29:15.735Z,46.10
2023-01-25T10:30:30.339Z,42.25
2023-01-25T10:31:43.024Z,54.80
2023-01-25T10:32:55.291Z,60.95
2023-01-25T10:34:01.889Z,49.28
2023-01-25T10:35:33.432Z,46.55
2023-01-25T10:36:39.335Z,46.65
2023-01-25T10:37:44.576Z,47.22
2023-01-25T10:38:49.930Z,50.75
2023-01-25T10:40:01.232Z,53.35
2023-01-25T10:41:10.040Z,41.63
2023-01-25T10:42:18.234Z,57.78
2023-01-25T10:43:25.341Z,54.47
2023-01-25T10:44:30.406Z,47.65
2023-01-25T10:45:32.586Z,41.42
2023-01-25T10:46:38.056Z,49.95
2023-01-25T10:47:45.633Z,46.10
2023-01-25T10:48:50.549Z,49.05
2023-01-25T10:49:57.662Z,47.83
2023-01-25T10:51:03.169Z,49.20
2023-01-25T10:52:14.715Z,45.95
2023-01-25T10:53:31.480Z,47.80
2023-01-25T10:54:38.994Z,51.33
2023-01-25T10:56:01.357Z,39.35
2023-01-25T10:57:09.431Z,44.70
2023-01-25T10:58:33.430Z,45.00
2023-01-25T10:59:39.421Z,48.08
2023-01-25T11:00:41.985Z,45.35
2023-01-25T11:01:47.387Z,40.80
2023-01-25T11:02:54.002Z,52.08
2023-01-25T11:03:59.537Z,68.82
2023-01-25T11:05:27.169Z,71.78
2023-01-25T11:06:34.907Z,46.95
2023-01-25T11:07:39.699Z,46.42
2023-01-25T11:08:46.104Z,47.40
2023-01-25T11:09:53.374Z,45.15
2023-01-25T11:10:55.513Z,47.65
2023-01-25T11:12:02.345Z,54.75
2023-01-25T11:13:23.014Z,57.03
2023-01-25T11:14:29.639Z,57.10
2023-01-25T11:15:34.643Z,48.97
2023-01-25T11:16:43.855Z,51.88
2023-01-25T11:17:45.850Z,52.55
2023-01-25T11:18:55.898Z,51.22
2023-01-25T11:20:19.338Z,45.22
2023-01-25T11:21:25.826Z,51.10
2023-01-25T11:22:30.569Z,50.15
2023-01-25T11:23:33.944Z,43.47
2023-01-25T11:24:39.447Z,65.65
2023-01-25T11:25:44.126Z,60.53
2023-01-25T11:26:49.290Z,55.05
2023-01-25T11:27:51.289Z,58.22
2023-01-25T11:29:10.434Z,64.03
2023-01-25T11:30:21.623Z,71.97
2023-01-25T11:31:27.460Z,63.70
2023-01-25T11:32:29.594Z,68.05
2023-01-25T11:33:34.481Z,65.70
2023-01-25T11:34:39.440Z,62.53
2023-01-25T11:36:04.895Z,63.95
2023-01-25T11:37:23.081Z,72.30
2023-01-25T11:38:28.475Z,61.70
2023-01-25T11:39:45.589Z,62.75
2023-01-25T11:41:00.418Z,65.05
2023-01-25T11:42:15.433Z,59.80
2023-01-25T11:43:32.540Z,63.50
2023-01-25T11:45:10.371Z,62.03
2023-01-25T11:46:41.178Z,99.68
2023-01-25T11:47:57.807Z,54.08
2023-01-25T11:49:14.737Z,53.10
2023-01-25T11:50:27.035Z,52.00
2023-01-25T11:51:37.186Z,48.45
2023-01-25T11:53:03.139Z,47.20
2023-01-25T11:54:48.909Z,47.63
2023-01-25T11:56:02.803Z,52.83
2023-01-25T11:57:21.684Z,53.65
2023-01-25T11:58:45.789Z,51.80
2023-01-25T12:00:12.721Z,51.97
2023-01-25T12:01:26.494Z,62.83
2023-01-25T12:02:52.797Z,73.05
2023-01-25T12:04:28.253Z,58.88
2023-01-25T12:05:46.485Z,63.97
2023-01-25T12:07:02.879Z,63.03
2023-01-25T12:08:22.908Z,61.95
2023-01-25T12:09:43.529Z,62.47
2023-01-25T12:11:00.004Z,92.32
2023-01-25T12:12:14.201Z,94.60
2023-01-25T12:13:28.572Z,81.38
2023-01-25T12:14:45.954Z,86.03
2023-01-25T12:16:12.043Z,66.70
2023-01-25T12:17:34.672Z,59.25
2023-01-25T12:19:07.127Z,69.57
2023-01-25T12:20:31.608Z,74.78
2023-01-25T12:21:50.453Z,69.60
2023-01-25T12:23:18.107Z,72.93
2023-01-25T12:24:37.639Z,66.32
2023-01-25T12:25:48.400Z,65.40
2023-01-25T12:27:03.860Z,57.80
2023-01-25T12:28:16.823Z,58.47
2023-01-25T12:29:28.175Z,51.65
2023-01-25T12:30:44.987Z,49.35
2023-01-25T12:31:55.012Z,48.53
2023-01-25T12:33:14.348Z,45.45
2023-01-25T12:34:24.533Z,57.70
2023-01-25T12:35:36.099Z,51.47
2023-01-25T12:36:45.970Z,50.28
2023-01-25T12:37:49.778Z,51.45
2023-01-25T12:39:00.622Z,53.53
2023-01-25T12:40:12.400Z,58.60
2023-01-25T12:41:29.209Z,57.08
2023-01-25T12:42:42.656Z,60.75
2023-01-25T12:43:53.296Z,58.00
2023-01-25T12:45:03.785Z,60.50
2023-01-25T12:46:17.775Z,51.70
2023-01-25T12:47:28.073Z,43.38
2023-01-25T12:48:36.720Z,45.75
2023-01-25T12:49:45.623Z,48.15
2023-01-25T12:50:55.230Z,48.92
2023-01-25T12:52:04.318Z,50.00
2023-01-25T12:53:13.864Z,54.60
2023-01-25T12:54:26.249Z,52.63
2023-01-25T12:55:31.931Z,56.05
2023-01-25T12:56:45.489Z,50.95
2023-01-25T12:58:01.067Z,51.03
2023-01-25T12:59:17.802Z,50.88
2023-01-25T13:00:30.368Z,54.58
2023-01-25T13:01:43.191Z,63.00
2023-01-25T13:03:03.223Z,50.53
2023-01-25T13:04:23.580Z,48.30
2023-01-25T13:05:37.787Z,50.35
2023-01-25T13:06:50.560Z,47.40
2023-01-25T13:08:05.599Z,48.13
2023-01-25T13:09:16.754Z,44.17
2023-01-25T13:10:27.306Z,51.17
2023-01-25T13:11:37.782Z,47.00
2023-01-25T13:13:00.999Z,47.67
2023-01-25T13:14:41.517Z,64.57
2023-01-25T13:15:47.841Z,59.85
2023-01-25T13:17:09.033Z,70.40
2023-01-25T13:18:42.418Z,63.05
2023-01-25T13:19:47.349Z,58.30
2023-01-25T13:20:54.066Z,53.38
2023-01-25T13:21:59.825Z,61.30
2023-01-25T13:23:01.963Z,53.47
2023-01-25T13:24:18.713Z,50.60
2023-01-25T13:25:22.836Z,45.92
2023-01-25T13:26:51.758Z,52.13
2023-01-25T13:28:43.260Z,50.22
2023-01-25T13:29:49.493Z,48.88
2023-01-25T13:30:56.261Z,51.20
2023-01-25T13:31:59.625Z,49.67
2023-01-25T13:33:07.421Z,43.42
2023-01-25T13:34:12.720Z,44.70
2023-01-25T13:35:27.265Z,46.97
2023-01-25T13:36:48.597Z,51.90
2023-01-25T13:37:59.292Z,50.42
2023-01-25T13:39:04.568Z,50.63
2023-01-25T13:40:37.401Z,50.22
2023-01-25T13:42:01.185Z,50.50
2023-01-25T13:43:20.741Z,52.45
2023-01-25T13:44:29.350Z,49.17
2023-01-25T13:45:38.022Z,59.15
2023-01-25T13:46:40.037Z,58.75
2023-01-25T13:47:47.292Z,44.10
2023-01-25T13:49:02.696Z,49.78
2023-01-25T13:50:21.566Z,46.80
2023-01-25T13:51:25.148Z,60.08
2023-01-25T13:52:32.380Z,53.22
2023-01-25T13:53:35.471Z,53.97
2023-01-25T13:54:46.222Z,56.92
2023-01-25T13:55:50.645Z,54.77
2023-01-25T13:57:07.162Z,64.28
2023-01-25T13:58:21.372Z,55.92
2023-01-25T13:59:30.470Z,61.25
2023-01-25T14:00:32.578Z,55.22
2023-01-25T14:01:39.206Z,55.53
2023-01-25T14:02:43.157Z,51.28
2023-01-25T14:03:49.915Z,49.97
2023-01-25T14:04:53.175Z,51.00
2023-01-25T14:06:02.590Z,61.55
2023-01-25T14:07:10.117Z,66.05
2023-01-25T14:08:15.875Z,61.55
2023-01-25T14:09:22.881Z,67.10
2023-01-25T14:10:30.911Z,93.45
2023-01-25T14:11:34.865Z,113.72
2023-01-25T14:12:42.334Z,66.05
2023-01-25T14:14:02.009Z,76.05
2023-01-25T14:15:25.114Z,72.53
2023-01-25T14:16:30.530Z,52.72
2023-01-25T14:17:35.287Z,49.67
2023-01-25T14:18:43.213Z,66.47
2023-01-25T14:19:50.129Z,65.30
2023-01-25T14:20:53.701Z,61.55
2023-01-25T14:22:14.799Z,56.58
2023-01-25T14:23:22.607Z,58.50
2023-01-25T14:24:27.375Z,56.42
2023-01-25T14:25:32.747Z,63.75
2023-01-25T14:26:39.413Z,50.03
2023-01-25T14:27:49.070Z,58.30
2023-01-25T14:29:02.293Z,51.72
2023-01-25T14:30:20.774Z,54.72